Time;durP1;ratioP1;P1;durP2;ratioP2;P2;SDS_P1;SDS_P2;PMS_P1;PMS_P2;Temp;Humidity;BMP_temperature;BMP_pressure;BME280_temperature;BME280_humidity;BME280_pressure;Samples;Min_cycle;Max_cycle;Signal;HPM_P1;HPM_P2
2022/12/31 00:01:05;;;;;;;;;;;;;;;-144.47;100.00;61586.06;4932810;28;20375;-79
2022/12/31 00:03:31;;;;;;;;;;;;;;;-144.47;100.00;61586.06;4927751;28;19918;-79
2022/12/31 00:05:56;;;;;;;;;;;;;;;-144.47;100.00;61586.06;4928192;28;20045;-80
2022/12/31 00:08:22;;;;;;;;;;;;;;;-144.47;100.00;61586.06;4929061;28;19918;-79
2022/12/31 00:10:47;;;;;;;;;;;;;;;-144.47;100.00;61586.06;4928213;28;19926;-80
2022/12/31 00:13:13;;;;;;;;;;;;;;;-144.47;100.00;61586.06;4939467;29;20312;-78
2022/12/31 00:15:39;;;;;;;;;;;;;;;-144.47;100.00;61586.06;4932142;28;20434;-80
2022/12/31 00:18:04;;;;;;;;;;;;;;;-144.47;100.00;61586.06;4932757;29;19919;-80
2022/12/31 00:20:30;;;;;;;;;;;;;;;-144.47;100.00;61586.06;4927821;29;19919;-81
2022/12/31 00:22:56;;;;;;;;;;;;;;;-144.47;100.00;61586.06;4931374;28;19923;-81
2022/12/31 00:25:22;;;;;;;;;;;;;;;-144.47;100.00;61586.06;4930306;29;19922;-80
2022/12/31 00:27:48;;;;;;;;;;;;;;;-144.47;100.00;61586.06;4932395;28;19919;-80
2022/12/31 00:30:13;;;;;;;;;;;;;;;-144.47;100.00;61586.06;4932001;29;19942;-78
2022/12/31 00:32:39;;;;;;;;;;;;;;;-144.47;100.00;61586.06;4931547;28;20383;-79
2022/12/31 00:35:04;;;;;;;;;;;;;;;-144.47;100.00;61586.06;4931613;28;19925;-81
2022/12/31 00:37:30;;;;;;;;;;;;;;;-144.47;100.00;61586.06;4928457;29;19918;-80
2022/12/31 00:39:55;;;;;;;;;;;;;;;-144.47;100.00;61586.06;4931305;28;19919;-80
2022/12/31 00:42:20;;;;;;;;;;;;;;;-144.47;100.00;61586.06;4928118;29;20397;-80
2022/12/31 00:44:46;;;;;;;;;;;;;;;-144.47;100.00;61586.06;4929105;28;19926;-80
2022/12/31 00:47:11;;;;;;;;;;;;;;;-144.47;100.00;61586.06;4932781;28;20271;-78
2022/12/31 00:49:36;;;;;;;;;;;;;;;-144.47;100.00;61586.06;4941182;29;20391;-79
2022/12/31 00:52:02;;;;;;;;;;;;;;;-144.47;100.00;61586.06;4929169;28;19925;-76
2022/12/31 00:54:27;;;;;;;;;;;;;;;-144.47;100.00;61586.06;4929772;29;19919;-77
2022/12/31 00:56:52;;;;;;;;;;;;;;;-144.47;100.00;61586.06;4929521;28;19923;-78
2022/12/31 00:59:17;;;;;;;;;;;;;;;-144.47;100.00;61586.06;4930262;28;19922;-78
2022/12/31 01:01:43;;;;;;;;;;;;;;;-144.47;100.00;61586.06;4930293;28;19925;-80
2022/12/31 01:04:13;;;;;;;;;;;;;;;-144.47;100.00;61586.06;4928554;28;19919;-78
2022/12/31 01:06:39;;;;;;;;;;;;;;;-144.47;100.00;61586.06;4931297;28;19923;-79
2022/12/31 01:09:05;;;;;;;;;;;;;;;-144.47;100.00;61586.06;4927700;29;20433;-80
2022/12/31 01:11:31;;;;;;;;;;;;;;;-144.47;100.00;61586.06;4927846;28;20367;-79
2022/12/31 01:14:04;;;;;;;;;;;;;;;-144.47;100.00;61586.06;4930981;29;19927;-80
2022/12/31 01:16:38;;;;;;;;;;;;;;;-144.47;100.00;61586.06;4925500;28;20358;-80
2022/12/31 01:19:05;;;;;;;;;;;;;;;-144.47;100.00;61586.06;4939889;28;19919;-79
2022/12/31 01:21:31;;;;;;;;;;;;;;;-144.47;100.00;61586.06;4930093;28;19950;-77
2022/12/31 01:23:57;;;;;;;;;;;;;;;-144.47;100.00;61586.06;4937619;28;19973;-78
2022/12/31 01:26:22;;;;;;;;;;;;;;;-144.47;100.00;61586.06;4948393;28;19919;-78
2022/12/31 01:28:47;;;;;;;;;;;;;;;-144.47;100.00;61586.06;4930412;28;19929;-77
2022/12/31 01:31:14;;;;;;;;;;;;;;;-144.47;100.00;61586.06;4936304;28;19923;-78
2022/12/31 01:33:40;;;;;;;;;;;;;;;-144.47;100.00;61586.06;4931310;28;20378;-77
2022/12/31 01:36:08;;;;;;;;;;;;;;;-144.47;100.00;61586.06;4930947;28;19945;-81
2022/12/31 01:38:34;;;;;;;;;;;;;;;-144.47;100.00;61586.06;4930679;28;19965;-77
2022/12/31 01:41:00;;;;;;;;;;;;;;;-144.47;100.00;61586.06;4932204;28;20390;-77
2022/12/31 01:43:44;;;;;;;;;;;;;;;-144.47;100.00;61586.06;4931150;28;19918;-77
2022/12/31 01:46:10;;;;;;;;;;;;;;;-144.47;100.00;61586.06;4927112;28;20405;-79
2022/12/31 01:48:35;;;;;;;;;;;;;;;-144.47;100.00;61586.06;4932764;29;20332;-77
2022/12/31 01:51:00;;;;;;;;;;;;;;;-144.47;100.00;61586.06;4931581;28;19919;-77
2022/12/31 01:53:26;;;;;;;;;;;;;;;-144.47;100.00;61586.06;4934090;29;20347;-78
2022/12/31 01:55:54;;;;;;;;;;;;;;;-144.47;100.00;61586.06;4932762;28;19942;-79
2022/12/31 01:58:21;;;;;;;;;;;;;;;-144.47;100.00;61586.06;4928438;28;20751;-79
2022/12/31 02:00:50;;;;;;;;;;;;;;;-144.47;100.00;61586.06;4933881;28;19964;-82
2022/12/31 02:03:17;;;;;;;;;;;;;;;-144.47;100.00;61586.06;4930733;28;20487;-80
2022/12/31 02:05:45;;;;;;;;;;;;;;;-144.47;100.00;61586.06;4933739;28;19931;-80
2022/12/31 02:08:12;;;;;;;;;;;;;;;-144.47;100.00;61586.06;4940703;28;19925;-80
2022/12/31 02:10:38;;;;;;;;;;;;;;;-144.47;100.00;61586.06;4956317;28;19929;-80
2022/12/31 02:13:03;;;;;;;;;;;;;;;-144.47;100.00;61586.06;4942963;28;19919;-80
2022/12/31 02:15:38;;;;;;;;;;;;;;;-144.47;100.00;61586.06;4934547;28;19934;-79
2022/12/31 02:18:03;;;;;;;;;;;;;;;-144.47;100.00;61586.06;4937179;28;20398;-78
2022/12/31 02:20:35;;;;;;;;;;;;;;;-144.47;100.00;61586.06;4949988;28;19965;-80
2022/12/31 02:23:18;;;;;;;;;;;;;;;-144.47;100.00;61586.06;4933916;28;20022;-80
2022/12/31 02:25:46;;;;;;;;;;;;;;;-144.47;100.00;61586.06;4927983;28;19926;-81
2022/12/31 02:28:24;;;;;;;;;;;;;;;-144.47;100.00;61586.06;4944601;28;19919;-80
2022/12/31 02:30:53;;;;;;;;;;;;;;;-144.47;100.00;61586.06;4928739;29;19981;-80
2022/12/31 02:33:37;;;;;;;;;;;;;;;-144.47;100.00;61586.06;4943540;28;19945;-80
2022/12/31 02:36:06;;;;;;;;;;;;;;;-144.47;100.00;61586.06;4930605;28;20005;-79
2022/12/31 02:38:32;;;;;;;;;;;;;;;-144.47;100.00;61586.06;4936994;28;19918;-83
2022/12/31 02:40:59;;;;;;;;;;;;;;;-144.47;100.00;61586.06;4931389;29;19929;-81
2022/12/31 02:43:24;;;;;;;;;;;;;;;-144.47;100.00;61586.06;4930851;28;19944;-78
2022/12/31 02:46:08;;;;;;;;;;;;;;;-144.47;100.00;61586.06;4932253;28;20437;-80
2022/12/31 02:48:39;;;;;;;;;;;;;;;-144.47;100.00;61586.06;4931723;28;20142;-77
2022/12/31 02:51:28;;;;;;;;;;;;;;;-144.47;100.00;61586.06;4915826;28;19970;-78
2022/12/31 02:54:01;;;;;;;;;;;;;;;-144.47;100.00;61586.06;4930511;28;19926;-80
2022/12/31 02:56:34;;;;;;;;;;;;;;;-144.47;100.00;61586.06;4929768;29;19919;-80
2022/12/31 03:04:32;;;;;;;;;;;;;;;-144.47;100.00;61586.06;4929273;28;20052;-77
2022/12/31 03:07:05;;;;;;;;;;;;;;;-144.47;100.00;61586.06;4933392;29;19922;-79
2022/12/31 03:09:31;;;;;;;;;;;;;;;-144.47;100.00;61586.06;4936561;28;19988;-79
2022/12/31 03:14:42;;;;;;;;;;;;;;;-144.47;100.00;61586.06;4930457;28;19919;-81
2022/12/31 03:17:07;;;;;;;;;;;;;;;-144.47;100.00;61586.06;4945950;28;19919;-80
2022/12/31 03:22:28;;;;;;;;;;;;;;;-144.47;100.00;61586.06;4932246;28;20434;-79
2022/12/31 03:27:39;;;;;;;;;;;;;;;-144.47;100.00;61586.06;4929788;29;19998;-79
2022/12/31 03:30:05;;;;;;;;;;;;;;;-144.47;100.00;61586.06;4926883;28;20017;-78
2022/12/31 03:32:30;;;;;;;;;;;;;;;-144.47;100.00;61586.06;4933032;28;20374;-79
2022/12/31 03:34:55;;;;;;;;;;;;;;;-144.47;100.00;61586.06;4927271;28;20348;-79
2022/12/31 03:37:21;;;;;;;;;;;;;;;-144.47;100.00;61586.06;4931968;28;20446;-78
2022/12/31 03:39:46;;;;;;;;;;;;;;;-144.47;100.00;61586.06;4929039;28;20402;-81
2022/12/31 03:42:11;;;;;;;;;;;;;;;-144.47;100.00;61586.06;4933869;28;19919;-79
2022/12/31 03:44:37;;;;;;;;;;;;;;;-144.47;100.00;61586.06;4928459;28;20225;-78
2022/12/31 03:47:02;;;;;;;;;;;;;;;-144.47;100.00;61586.06;4930870;29;19927;-77
2022/12/31 03:49:28;;;;;;;;;;;;;;;-144.47;100.00;61586.06;4926490;28;19923;-80
2022/12/31 03:51:53;;;;;;;;;;;;;;;-144.47;100.00;61586.06;4932227;29;19973;-79
2022/12/31 03:54:18;;;;;;;;;;;;;;;-144.47;100.00;61586.06;4928187;28;19934;-79
2022/12/31 03:56:44;;;;;;;;;;;;;;;-144.47;100.00;61586.06;4927452;28;19926;-80
2022/12/31 03:59:10;;;;;;;;;;;;;;;-144.47;100.00;61586.06;4930327;29;20395;-78
2022/12/31 04:01:35;;;;;;;;;;;;;;;-144.47;100.00;61586.06;4930207;29;19997;-79
2022/12/31 04:04:00;;;;;;;;;;;;;;;-144.47;100.00;61586.06;4925475;28;19928;-79
2022/12/31 04:06:26;;;;;;;;;;;;;;;-144.47;100.00;61586.06;4931377;28;19919;-78
2022/12/31 04:08:51;;;;;;;;;;;;;;;-144.47;100.00;61586.06;4927681;28;19919;-79
2022/12/31 04:11:17;;;;;;;;;;;;;;;-144.47;100.00;61586.06;4933141;28;19929;-78
2022/12/31 04:13:42;;;;;;;;;;;;;;;-144.47;100.00;61586.06;4931782;28;19922;-80
2022/12/31 04:16:12;;;;;;;;;;;;;;;-144.47;100.00;61586.06;4929575;29;19962;-80
2022/12/31 04:18:37;;;;;;;;;;;;;;;-144.47;100.00;61586.06;4927876;28;20021;-79
2022/12/31 04:21:04;;;;;;;;;;;;;;;-144.47;100.00;61586.06;4930142;29;20010;-78
2022/12/31 04:23:29;;;;;;;;;;;;;;;-144.47;100.00;61586.06;4940892;28;19972;-78
2022/12/31 04:25:56;;;;;;;;;;;;;;;-144.47;100.00;61586.06;4954025;28;19915;-80
2022/12/31 04:28:22;;;;;;;;;;;;;;;-144.47;100.00;61586.06;4932137;28;19930;-77
2022/12/31 04:30:47;;;;;;;;;;;;;;;-144.47;100.00;61586.06;4927419;28;19923;-79
2022/12/31 04:33:12;;;;;;;;;;;;;;;-144.47;100.00;61586.06;4928132;28;19946;-77
2022/12/31 04:35:38;;;;;;;;;;;;;;;-144.47;100.00;61586.06;4929847;28;19981;-79
2022/12/31 04:38:03;;;;;;;;;;;;;;;-144.47;100.00;61586.06;4942246;28;19976;-78
2022/12/31 04:40:29;;;;;;;;;;;;;;;-144.47;100.00;61586.06;4932918;28;19918;-79
2022/12/31 04:42:54;;;;;;;;;;;;;;;-144.47;100.00;61586.06;4930838;29;19985;-79
2022/12/31 04:45:19;;;;;;;;;;;;;;;-144.47;100.00;61586.06;4928344;28;19923;-79
2022/12/31 04:47:45;;;;;;;;;;;;;;;-144.47;100.00;61586.06;4928600;28;19926;-77
2022/12/31 04:50:10;;;;;;;;;;;;;;;-144.47;100.00;61586.06;4929008;28;19995;-82
2022/12/31 04:52:35;;;;;;;;;;;;;;;-144.47;100.00;61586.06;4926232;29;19915;-79
2022/12/31 04:55:01;;;;;;;;;;;;;;;-144.47;100.00;61586.06;4935652;28;19990;-80
2022/12/31 04:57:26;;;;;;;;;;;;;;;-144.47;100.00;61586.06;4924831;29;19985;-80
2022/12/31 04:59:51;;;;;;;;;;;;;;;-144.47;100.00;61586.06;4932641;28;19915;-78
2022/12/31 05:02:17;;;;;;;;;;;;;;;-144.47;100.00;61586.06;4929142;29;19930;-80
2022/12/31 05:04:42;;;;;;;;;;;;;;;-144.47;100.00;61586.06;4932370;28;19915;-79
2022/12/31 05:07:07;;;;;;;;;;;;;;;-144.47;100.00;61586.06;4929618;28;20022;-78
2022/12/31 05:09:33;;;;;;;;;;;;;;;-144.47;100.00;61586.06;4928680;28;19927;-77
2022/12/31 05:11:58;;;;;;;;;;;;;;;-144.47;100.00;61586.06;4927703;28;20052;-79
2022/12/31 05:14:24;;;;;;;;;;;;;;;-144.47;100.00;61586.06;4929223;28;19923;-78
2022/12/31 05:16:50;;;;;;;;;;;;;;;-144.47;100.00;61586.06;4929065;28;19919;-78
2022/12/31 05:19:16;;;;;;;;;;;;;;;-144.47;100.00;61586.06;4931240;28;20272;-78
2022/12/31 05:21:41;;;;;;;;;;;;;;;-144.47;100.00;61586.06;4932037;29;19923;-79
2022/12/31 05:24:07;;;;;;;;;;;;;;;-144.47;100.00;61586.06;4928673;28;19919;-77
2022/12/31 05:26:33;;;;;;;;;;;;;;;-144.47;100.00;61586.06;4932158;28;19930;-79
2022/12/31 05:28:59;;;;;;;;;;;;;;;-144.47;100.00;61586.06;4929131;28;19969;-81
2022/12/31 05:31:25;;;;;;;;;;;;;;;-144.47;100.00;61586.06;4930935;28;20013;-82
2022/12/31 05:33:50;;;;;;;;;;;;;;;-144.47;100.00;61586.06;4928627;29;20014;-82
2022/12/31 05:36:15;;;;;;;;;;;;;;;-144.47;100.00;61586.06;4941806;28;20298;-84
2022/12/31 05:38:41;;;;;;;;;;;;;;;-144.47;100.00;61586.06;4950005;28;20255;-81
2022/12/31 05:41:07;;;;;;;;;;;;;;;-144.47;100.00;61586.06;4944359;28;19983;-80
2022/12/31 05:43:33;;;;;;;;;;;;;;;-144.47;100.00;61586.06;4934193;29;19966;-78
2022/12/31 05:45:59;;;;;;;;;;;;;;;-144.47;100.00;61586.06;4929047;28;19923;-81
2022/12/31 05:48:24;;;;;;;;;;;;;;;-144.47;100.00;61586.06;4929985;28;20336;-80
2022/12/31 05:50:50;;;;;;;;;;;;;;;-144.47;100.00;61586.06;4924495;28;19923;-79
2022/12/31 05:53:15;;;;;;;;;;;;;;;-144.47;100.00;61586.06;4928968;29;19919;-79
2022/12/31 05:55:40;;;;;;;;;;;;;;;-144.47;100.00;61586.06;4924558;28;19919;-78
2022/12/31 05:58:06;;;;;;;;;;;;;;;-144.47;100.00;61586.06;4927413;28;19925;-77
2022/12/31 06:00:31;;;;;;;;;;;;;;;-144.47;100.00;61586.06;4927534;28;20294;-79
2022/12/31 06:02:57;;;;;;;;;;;;;;;-144.47;100.00;61586.06;4929058;28;19925;-79
2022/12/31 06:05:23;;;;;;;;;;;;;;;-144.47;100.00;61586.06;4931406;28;19925;-78
2022/12/31 06:07:48;;;;;;;;;;;;;;;-144.47;100.00;61586.06;4932755;28;20386;-78
2022/12/31 06:10:14;;;;;;;;;;;;;;;-144.47;100.00;61586.06;4927279;29;20378;-78
2022/12/31 06:12:39;;;;;;;;;;;;;;;-144.47;100.00;61586.06;4935392;29;19926;-78
2022/12/31 06:15:05;;;;;;;;;;;;;;;-144.47;100.00;61586.06;4915356;28;19919;-80
2022/12/31 06:17:31;;;;;;;;;;;;;;;-144.47;100.00;61586.06;4948809;28;20364;-80
2022/12/31 06:19:56;;;;;;;;;;;;;;;-144.47;100.00;61586.06;4929722;28;20021;-79
2022/12/31 06:22:22;;;;;;;;;;;;;;;-144.47;100.00;61586.06;4929534;28;20021;-77
2022/12/31 06:24:47;;;;;;;;;;;;;;;-144.47;100.00;61586.06;4946382;28;19923;-78
2022/12/31 06:27:13;;;;;;;;;;;;;;;-144.47;100.00;61586.06;4932398;28;19919;-78
2022/12/31 06:29:38;;;;;;;;;;;;;;;-144.47;100.00;61586.06;4941921;29;19923;-80
2022/12/31 06:32:04;;;;;;;;;;;;;;;-144.47;100.00;61586.06;4928971;28;19919;-76
2022/12/31 06:34:29;;;;;;;;;;;;;;;-144.47;100.00;61586.06;4929873;28;19965;-77
2022/12/31 06:36:54;;;;;;;;;;;;;;;-144.47;100.00;61586.06;4927835;28;19919;-77
2022/12/31 06:39:20;;;;;;;;;;;;;;;-144.47;100.00;61586.06;4932766;29;19923;-78
2022/12/31 06:41:45;;;;;;;;;;;;;;;-144.47;100.00;61586.06;4932519;28;19918;-79
2022/12/31 06:44:11;;;;;;;;;;;;;;;-144.47;100.00;61586.06;4931443;29;20366;-81
2022/12/31 06:46:36;;;;;;;;;;;;;;;-144.47;100.00;61586.06;4957880;28;19980;-80
2022/12/31 06:49:01;;;;;;;;;;;;;;;-144.47;100.00;61586.06;5019381;28;20306;-81
2022/12/31 06:51:27;;;;;;;;;;;;;;;-144.47;100.00;61586.06;4928289;28;19923;-79
2022/12/31 06:53:52;;;;;;;;;;;;;;;-144.47;100.00;61586.06;4936246;28;19919;-79
2022/12/31 06:56:20;;;;;;;;;;;;;;;-144.47;100.00;61586.06;4930787;28;20375;-79
2022/12/31 06:58:45;;;;;;;;;;;;;;;-144.47;100.00;61586.06;4928816;28;19925;-79
2022/12/31 07:01:28;;;;;;;;;;;;;;;-144.47;100.00;61586.06;4940695;28;19919;-80
2022/12/31 07:04:00;;;;;;;;;;;;;;;-144.47;100.00;61586.06;4927951;29;19962;-78
2022/12/31 07:06:29;;;;;;;;;;;;;;;-144.47;100.00;61586.06;4935374;28;19958;-79
2022/12/31 07:09:09;;;;;;;;;;;;;;;-144.47;100.00;61586.06;4927967;28;20283;-81
2022/12/31 07:11:43;;;;;;;;;;;;;;;-144.47;100.00;61586.06;4945354;22;19923;-81
2022/12/31 07:14:28;;;;;;;;;;;;;;;-144.47;100.00;61586.06;4924603;28;19919;-79
2022/12/31 07:17:05;;;;;;;;;;;;;;;-144.47;100.00;61586.06;4933711;28;19994;-80
2022/12/31 07:19:50;;;;;;;;;;;;;;;-144.47;100.00;61586.06;4934411;29;20009;-80
2022/12/31 07:22:16;;;;;;;;;;;;;;;-144.47;100.00;61586.06;4931404;28;19926;-77
2022/12/31 07:24:42;;;;;;;;;;;;;;;-144.47;100.00;61586.06;4934651;28;19919;-81
2022/12/31 07:27:26;;;;;;;;;;;;;;;-144.47;100.00;61586.06;4934233;29;20377;-81
2022/12/31 07:30:11;;;;;;;;;;;;;;;-144.47;100.00;61586.06;4933126;28;19923;-80
2022/12/31 07:32:48;;;;;;;;;;;;;;;-144.47;100.00;61586.06;4938305;28;19919;-80
2022/12/31 07:35:14;;;;;;;;;;;;;;;-144.47;100.00;61586.06;4942544;28;19925;-79
2022/12/31 07:38:01;;;;;;;;;;;;;;;-144.47;100.00;61586.06;4940497;28;20005;-81
2022/12/31 07:40:52;;;;;;;;;;;;;;;-144.47;100.00;61586.06;4939778;29;19923;-80
2022/12/31 07:43:30;;;;;;;;;;;;;;;-144.47;100.00;61586.06;4939260;28;19945;-79
2022/12/31 07:46:06;;;;;;;;;;;;;;;-144.47;100.00;61586.06;4940567;28;19925;-79
2022/12/31 07:48:31;;;;;;;;;;;;;;;-144.47;100.00;61586.06;4937470;28;19919;-80
2022/12/31 07:50:57;;;;;;;;;;;;;;;-144.47;100.00;61586.06;4941318;29;19957;-84
2022/12/31 07:53:23;;;;;;;;;;;;;;;-144.47;100.00;61586.06;4942770;28;19919;-81
2022/12/31 07:55:58;;;;;;;;;;;;;;;-144.47;100.00;61586.06;4941775;28;19925;-80
2022/12/31 07:58:30;;;;;;;;;;;;;;;-144.47;100.00;61586.06;4939934;28;20013;-79
2022/12/31 08:00:56;;;;;;;;;;;;;;;-144.47;100.00;61586.06;4914292;28;19919;-81
2022/12/31 08:03:39;;;;;;;;;;;;;;;-144.47;100.00;61586.06;4935087;28;20331;-80
2022/12/31 08:06:23;;;;;;;;;;;;;;;-144.47;100.00;61586.06;4937899;28;19919;-79
2022/12/31 08:09:01;;;;;;;;;;;;;;;-144.47;100.00;61586.06;4931877;29;19926;-78
2022/12/31 08:11:48;;;;;;;;;;;;;;;-144.47;100.00;61586.06;4931210;28;20390;-79
2022/12/31 08:14:14;;;;;;;;;;;;;;;-144.47;100.00;61586.06;4934125;29;19927;-89
2022/12/31 08:16:40;;;;;;;;;;;;;;;-144.47;100.00;61586.06;4951113;28;19922;-82
2022/12/31 08:19:05;;;;;;;;;;;;;;;-144.47;100.00;61586.06;4933812;29;19925;-79
2022/12/31 08:21:34;;;;;;;;;;;;;;;-144.47;100.00;61586.06;4941998;28;20021;-80
2022/12/31 08:24:00;;;;;;;;;;;;;;;-144.47;100.00;61586.06;4930126;28;20013;-79
2022/12/31 08:26:26;;;;;;;;;;;;;;;-144.47;100.00;61586.06;4929764;28;20009;-82
2022/12/31 08:29:00;;;;;;;;;;;;;;;-144.47;100.00;61586.06;4931363;28;19994;-81
2022/12/31 08:31:36;;;;;;;;;;;;;;;-144.47;100.00;61586.06;4926056;28;20504;-81
2022/12/31 08:34:13;;;;;;;;;;;;;;;-144.47;100.00;61586.06;4932231;28;20002;-83
2022/12/31 08:36:38;;;;;;;;;;;;;;;-144.47;100.00;61586.06;4923800;29;19925;-82
2022/12/31 08:39:28;;;;;;;;;;;;;;;-144.47;100.00;61586.06;4921160;28;20013;-79
2022/12/31 08:41:55;;;;;;;;;;;;;;;-144.47;100.00;61586.06;4921649;28;19966;-79
2022/12/31 08:44:23;;;;;;;;;;;;;;;-144.47;100.00;61586.06;4920976;29;20014;-81
2022/12/31 08:46:51;;;;;;;;;;;;;;;-144.47;100.00;61586.06;4927216;28;20369;-82
2022/12/31 08:49:16;;;;;;;;;;;;;;;-144.47;100.00;61586.06;4919798;29;19922;-80
2022/12/31 08:51:43;;;;;;;;;;;;;;;-144.47;100.00;61586.06;4921285;28;20395;-83
2022/12/31 08:54:11;;;;;;;;;;;;;;;-144.47;100.00;61586.06;4924177;29;19974;-82
2022/12/31 08:57:05;;;;;;;57.80;40.05;;;;;;;-144.47;100.00;61586.06;4920954;28;19929;-81
2022/12/31 08:59:49;;;;;;;62.20;38.80;;;;;;;-144.47;100.00;61586.06;4933347;28;20096;-82
2022/12/31 09:02:31;;;;;;;62.85;39.05;;;;;;;-144.47;100.00;61586.06;4929006;28;20536;-84
2022/12/31 09:05:15;;;;;;;;;;;;;;;-144.47;100.00;61586.06;4941089;28;19929;-84
2022/12/31 09:07:49;;;;;;;;;;;;;;;-144.47;100.00;61586.06;4934625;29;19918;-84
2022/12/31 09:10:14;;;;;;;;;;;;;;;-144.47;100.00;61586.06;4915207;28;19942;-85
2022/12/31 09:12:52;;;;;;;;;;;;;;;-144.47;100.00;61586.06;4935148;28;19927;-83
2022/12/31 09:15:17;;;;;;;;;;;;;;;-144.47;100.00;61586.06;4933397;28;19918;-84
2022/12/31 09:17:45;;;;;;;;;;;;;;;-144.47;100.00;61586.06;4951182;28;19925;-85
2022/12/31 09:20:15;;;;;;;;;;;;;;;-144.47;100.00;61586.06;4934479;28;19919;-81
2022/12/31 09:22:41;;;;;;;;;;;;;;;-144.47;100.00;61586.06;4935521;28;19918;-84
2022/12/31 09:25:11;;;;;;;;;;;;;;;-144.47;100.00;61586.06;4934770;28;19922;-85
2022/12/31 09:27:45;;;;;;;;;;;;;;;-144.47;100.00;61586.06;4935352;28;19974;-83
2022/12/31 09:30:11;;;;;;;;;;;;;;;-144.47;100.00;61586.06;4931129;28;19922;-83
2022/12/31 09:32:56;;;;;;;;;;;;;;;-144.47;100.00;61586.06;4935316;28;19921;-80
2022/12/31 09:35:21;;;;;;;;;;;;;;;-144.47;100.00;61586.06;4944016;28;19923;-84
2022/12/31 09:37:48;;;;;;;;;;;;;;;-144.47;100.00;61586.06;4934045;28;19997;-81
2022/12/31 09:40:37;;;;;;;;;;;;;;;-144.47;100.00;61586.06;4933113;28;19919;-82
2022/12/31 09:43:15;;;;;;;;;;;;;;;-144.47;100.00;61586.06;4924179;28;19974;-80
2022/12/31 09:46:00;;;;;;;;;;;;;;;-144.47;100.00;61586.06;4922825;28;19922;-78
2022/12/31 09:48:32;;;;;;;;;;;;;;;-144.47;100.00;61586.06;4917200;28;20397;-77
2022/12/31 09:51:10;;;;;;;;;;;;;;;-144.47;100.00;61586.06;4929587;28;19990;-77
2022/12/31 09:53:54;;;;;;;;;;;;;;;-144.47;100.00;61586.06;4926124;28;19919;-76
2022/12/31 09:56:20;;;;;;;;;;;;;;;-144.47;100.00;61586.06;4922432;28;19919;-78
2022/12/31 09:58:48;;;;;;;;;;;;;;;-144.47;100.00;61586.06;4925253;29;19919;-78
2022/12/31 10:01:42;;;;;;;;;;;;;;;-144.47;100.00;61586.06;4924303;28;19919;-77
2022/12/31 10:04:23;;;;;;;;;;;;;;;-144.47;100.00;61586.06;4924375;29;19918;-79
2022/12/31 10:07:15;;;;;;;;;;;;;;;-144.47;100.00;61586.06;4930743;28;19919;-79
2022/12/31 10:09:57;;;;;;;;;;;;;;;-144.47;100.00;61586.06;4944209;28;19945;-78
2022/12/31 10:12:30;;;;;;;;;;;;;;;-144.47;100.00;61586.06;4924802;29;19929;-78
2022/12/31 10:14:56;;;;;;;;;;;;;;;-144.47;100.00;61586.06;4927033;28;19923;-78
2022/12/31 10:17:28;;;;;;;;;;;;;;;-144.47;100.00;61586.06;4925869;28;20834;-81
2022/12/31 10:20:09;;;;;;;;;;;;;;;-144.47;100.00;61586.06;4927770;28;19919;-79
2022/12/31 10:23:03;;;;;;;61.40;40.60;;;;;;;-144.47;100.00;61586.06;4926552;28;19922;-80
2022/12/31 10:25:52;;;;;;;62.60;41.42;;;;;;;-144.47;100.00;61586.06;4924592;29;20086;-81
2022/12/31 10:28:35;;;;;;;61.75;38.60;;;;;;;-144.47;100.00;61586.06;4932002;28;20040;-81
2022/12/31 10:31:39;;;;;;;;;;;;;;;-144.47;100.00;61586.06;4926598;28;20039;-79
2022/12/31 10:34:27;;;;;;;;;;;;;;;-144.47;100.00;61586.06;4991572;28;19932;-79
2022/12/31 10:36:57;;;;;;;;;;;;;;;-144.47;100.00;61586.06;4989011;28;19960;-81
2022/12/31 10:39:26;;;;;;;;;;;;;;;-144.47;100.00;61586.06;4975522;28;19918;-84
2022/12/31 10:42:10;;;;;;;;;;;;;;;-144.47;100.00;61586.06;4989673;28;19950;-80
2022/12/31 10:44:38;;;;;;;;;;;;;;;-144.47;100.00;61586.06;4990613;28;19918;-78
2022/12/31 10:47:09;;;;;;;;;;;;;;;-144.47;100.00;61586.06;4990512;28;19961;-80
2022/12/31 10:49:53;;;;;;;;;;;;;;;-144.47;100.00;61586.06;4988570;28;20008;-78
2022/12/31 10:52:38;;;;;;;;;;;;;;;-144.47;100.00;61586.06;4987347;28;19925;-82
2022/12/31 10:55:23;;;;;;;;;;;;;;;-144.47;100.00;61586.06;4986339;28;19918;-83
2022/12/31 10:58:04;;;;;;;;;;;;;;;-144.47;100.00;61586.06;4976993;28;20521;-80
2022/12/31 11:00:33;;;;;;;;;;;;;;;-144.47;100.00;61586.06;4975219;28;19918;-82
2022/12/31 11:03:27;;;;;;;;;;;;;;;-144.47;100.00;61586.06;4992519;28;19917;-76
2022/12/31 11:06:02;;;;;;;;;;;;;;;-144.47;100.00;61586.06;4986769;28;19961;-79
2022/12/31 11:09:00;;;;;;;;;;;;;;;-144.47;100.00;61586.06;4950306;28;19922;-78
2022/12/31 11:11:43;;;;;;;;;;;;;;;-144.47;100.00;61586.06;4929496;28;19923;-79
2022/12/31 11:14:09;;;;;;;;;;;;;;;-144.47;100.00;61586.06;4923746;28;19933;-79
2022/12/31 11:16:43;;;;;;;;;;;;;;;-144.47;100.00;61586.06;4940266;28;20005;-80
2022/12/31 11:19:15;;;;;;;;;;;;;;;-144.47;100.00;61586.06;4926713;28;19918;-79
2022/12/31 11:21:54;;;;;;;;;;;;;;;-144.47;100.00;61586.06;4922906;29;20013;-80
2022/12/31 11:24:24;;;;;;;;;;;;;;;-144.47;100.00;61586.06;4926174;28;20367;-80
2022/12/31 11:26:55;;;;;;;;;;;;;;;-144.47;100.00;61586.06;4926825;28;19919;-82
2022/12/31 11:29:24;;;;;;;;;;;;;;;-144.47;100.00;61586.06;4936833;29;19964;-79
2022/12/31 11:32:01;;;;;;;;;;;;;;;-144.47;100.00;61586.06;4924931;29;19922;-78
2022/12/31 11:34:51;;;;;;;;;;;;;;;-144.47;100.00;61586.06;4923926;29;19930;-80
2022/12/31 11:37:35;;;;;;;;;;;;;;;-144.47;100.00;61586.06;4927737;28;20009;-84
2022/12/31 11:40:15;;;;;;;;;;;;;;;-144.47;100.00;61586.06;4924768;28;19926;-79
2022/12/31 11:42:50;;;;;;;;;;;;;;;-144.47;100.00;61586.06;4924382;28;19987;-81
2022/12/31 11:45:36;;;;;;;;;;;;;;;-144.47;100.00;61586.06;4926842;28;19919;-85
2022/12/31 11:48:01;;;;;;;;;;;;;;;-144.47;100.00;61586.06;4931671;28;19949;-81
2022/12/31 11:50:30;;;;;;;;;;;;;;;-144.47;100.00;61586.06;4925421;28;19919;-80
2022/12/31 11:53:07;;;;;;;;;;;;;;;-144.47;100.00;61586.06;4923165;28;20416;-83
2022/12/31 11:55:41;;;;;;;;;;;;;;;-144.47;100.00;61586.06;4914340;28;20383;-82
2022/12/31 11:58:11;;;;;;;;;;;;;;;-144.47;100.00;61586.06;4900972;28;20265;-81
2022/12/31 12:00:37;;;;;;;;;;;;;;;-144.47;100.00;61586.06;4916585;28;19968;-78
2022/12/31 12:03:04;;;;;;;;;;;;;;;-144.47;100.00;61586.06;4915675;28;19922;-82
2022/12/31 12:05:30;;;;;;;;;;;;;;;-144.47;100.00;61586.06;4917061;29;19921;-80
2022/12/31 12:07:58;;;;;;;;;;;;;;;-144.47;100.00;61586.06;4918439;29;19923;-81
2022/12/31 12:10:25;;;;;;;;;;;;;;;-144.47;100.00;61586.06;4931707;28;20355;-79
2022/12/31 12:12:53;;;;;;;;;;;;;;;-144.47;100.00;61586.06;4923805;28;20408;-79
2022/12/31 12:15:30;;;;;;;;;;;;;;;-144.47;100.00;61586.06;4920393;29;20025;-77
2022/12/31 12:17:56;;;;;;;;;;;;;;;-144.47;100.00;61586.06;4921019;28;19926;-78
2022/12/31 12:20:33;;;;;;;;;;;;;;;-144.47;100.00;61586.06;4921581;28;20012;-76
2022/12/31 12:22:59;;;;;;;;;;;;;;;-144.47;100.00;61586.06;4923811;29;20065;-78
2022/12/31 12:25:27;;;;;;;;;;;;;;;-144.47;100.00;61586.06;4918952;29;20009;-80
2022/12/31 12:27:53;;;;;;;;;;;;;;;-144.47;100.00;61586.06;4917010;28;20069;-79
2022/12/31 12:30:24;;;;;;;;;;;;;;;-144.47;100.00;61586.06;4920752;28;19979;-79
2022/12/31 12:32:57;;;;;;;;;;;;;;;-144.47;100.00;61586.06;4920024;29;19926;-80
2022/12/31 12:35:24;;;;;;;;;;;;;;;-144.47;100.00;61586.06;4928467;28;20390;-78
2022/12/31 12:37:57;;;;;;;;;;;;;;;-144.47;100.00;61586.06;4926078;28;19977;-79
2022/12/31 12:40:23;;;;;;;;;;;;;;;-144.47;100.00;61586.06;4937536;29;19918;-78
2022/12/31 12:42:50;;;;;;;;;;;;;;;-144.47;100.00;61586.06;4946091;28;19918;-80
2022/12/31 12:45:20;;;;;;;;;;;;;;;-144.47;100.00;61586.06;4933898;28;19942;-79